createdAt,value
2022-11-13T00:02:27.677Z,7.72
2022-11-13T00:07:45.609Z,7.89
2022-11-13T00:13:06.479Z,8.36
2022-11-13T00:18:24.495Z,8.01
2022-11-13T00:23:42.712Z,8.57
2022-11-13T00:29:02.371Z,9.33
2022-11-13T00:34:45.954Z,9.22
2022-11-13T00:39:59.482Z,9.45
2022-11-13T00:45:23.261Z,9.72
2022-11-13T00:50:43.299Z,9.33
2022-11-13T00:56:06.073Z,9.08
2022-11-13T01:01:30.933Z,9.21
2022-11-13T01:06:52.058Z,9.11
2022-11-13T01:12:10.567Z,8.88
2022-11-13T01:17:27.350Z,8.38
2022-11-13T01:22:45.143Z,8.62
2022-11-13T01:28:04.885Z,8.57
2022-11-13T01:33:28.158Z,8.55
2022-11-13T01:38:46.878Z,8.64
2022-11-13T01:44:06.750Z,8.86
2022-11-13T01:49:32.680Z,8.88
2022-11-13T01:54:56.327Z,8.81
2022-11-13T02:00:16.118Z,8.91
2022-11-13T02:05:37.090Z,8.54
2022-11-13T02:10:59.244Z,8.72
2022-11-13T02:16:22.820Z,8.86
2022-11-13T02:21:44.313Z,9.00
2022-11-13T02:27:03.758Z,8.50
2022-11-13T02:32:23.061Z,8.92
2022-11-13T02:37:42.978Z,8.75
2022-11-13T02:43:03.641Z,9.10
2022-11-13T02:48:27.948Z,8.89
2022-11-13T02:53:48.509Z,9.10
2022-11-13T02:59:06.943Z,8.79
2022-11-13T03:04:24.185Z,8.77
2022-11-13T03:09:44.365Z,9.04
2022-11-13T03:15:04.736Z,8.91
2022-11-13T03:20:21.179Z,9.17
2022-11-13T03:25:44.247Z,9.17
2022-11-13T03:31:01.932Z,8.38
2022-11-13T03:36:20.000Z,8.67
2022-11-13T03:41:38.770Z,8.46
2022-11-13T03:46:55.867Z,8.31
2022-11-13T03:52:17.782Z,8.35
2022-11-13T03:57:34.512Z,8.18
2022-11-13T04:02:53.696Z,8.34
2022-11-13T04:08:10.997Z,8.41
2022-11-13T04:13:28.258Z,8.83
2022-11-13T04:18:45.180Z,8.84
2022-11-13T04:24:03.036Z,9.00
2022-11-13T04:29:19.272Z,8.91
2022-11-13T04:34:35.107Z,8.86
2022-11-13T04:39:53.825Z,8.86
2022-11-13T04:45:13.938Z,9.09
2022-11-13T04:50:32.940Z,9.17
2022-11-13T04:55:49.239Z,9.32
2022-11-13T05:01:08.239Z,9.26
2022-11-13T05:06:25.715Z,9.16
2022-11-13T05:11:42.968Z,9.50
2022-11-13T05:17:02.821Z,9.70
2022-11-13T05:22:20.237Z,9.97
2022-11-13T05:27:37.572Z,10.27
2022-11-13T05:32:55.203Z,10.39
2022-11-13T05:38:12.526Z,10.35
2022-11-13T05:43:30.139Z,10.29
2022-11-13T05:48:48.486Z,10.53
2022-11-13T05:54:07.400Z,10.61
2022-11-13T05:59:25.497Z,10.60
2022-11-13T06:04:44.178Z,10.76
2022-11-13T06:10:05.004Z,10.78
2022-11-13T06:15:54.799Z,10.81
2022-11-13T06:21:14.477Z,10.87
2022-11-13T06:26:32.070Z,10.68
2022-11-13T06:31:52.023Z,10.86
2022-11-13T06:37:09.262Z,11.17
2022-11-13T06:42:26.480Z,11.00
2022-11-13T06:47:44.433Z,11.01
2022-11-13T06:53:03.633Z,10.60
2022-11-13T06:58:23.591Z,10.77
2022-11-13T07:03:40.309Z,11.11
2022-11-13T07:09:01.306Z,11.15
2022-11-13T07:14:18.409Z,11.13
2022-11-13T07:19:34.281Z,10.91
2022-11-13T07:24:54.022Z,11.09
2022-11-13T07:30:11.983Z,11.10
2022-11-13T07:35:30.789Z,11.40
2022-11-13T07:40:49.502Z,11.62
2022-11-13T07:46:05.666Z,11.84
2022-11-13T07:51:26.486Z,12.00
2022-11-13T07:56:44.725Z,11.97
2022-11-13T08:02:03.243Z,12.10
2022-11-13T08:07:23.159Z,12.15
2022-11-13T08:12:42.316Z,12.21
2022-11-13T08:17:59.322Z,12.37
2022-11-13T08:23:15.978Z,12.42
2022-11-13T08:28:37.434Z,12.47
2022-11-13T08:33:54.610Z,12.60
2022-11-13T08:39:11.904Z,12.35
2022-11-13T08:44:29.257Z,12.85
2022-11-13T08:49:48.804Z,12.93
2022-11-13T08:55:06.296Z,13.12
2022-11-13T09:00:23.301Z,13.17
2022-11-13T09:05:42.777Z,12.94
2022-11-13T09:11:04.999Z,13.24
2022-11-13T09:16:21.806Z,13.03
2022-11-13T09:21:39.526Z,12.96
2022-11-13T09:26:56.539Z,12.82
2022-11-13T09:32:16.657Z,12.99
2022-11-13T09:37:37.238Z,13.16
2022-11-13T09:42:56.747Z,13.13
2022-11-13T09:48:15.841Z,13.45
2022-11-13T09:53:43.334Z,13.49
2022-11-13T09:59:15.430Z,13.73
2022-11-13T10:04:37.444Z,13.69
2022-11-13T10:10:18.255Z,13.25
2022-11-13T10:15:49.625Z,13.62
2022-11-13T10:21:09.705Z,13.77
2022-11-13T10:26:33.403Z,13.79
2022-11-13T10:31:59.999Z,14.09
2022-11-13T10:37:44.748Z,13.86
2022-11-13T10:43:05.895Z,14.10
2022-11-13T10:48:26.897Z,14.34
2022-11-13T10:53:46.024Z,14.41
2022-11-13T10:59:12.731Z,14.36
2022-11-13T11:04:33.742Z,14.30
2022-11-13T11:09:50.729Z,14.31
2022-11-13T11:15:26.366Z,14.55
2022-11-13T11:20:47.761Z,14.62
2022-11-13T11:26:17.044Z,14.01
2022-11-13T11:31:37.850Z,13.47
2022-11-13T11:36:58.313Z,14.08
2022-11-13T11:42:27.367Z,14.27
2022-11-13T11:47:47.691Z,14.19
2022-11-13T11:53:08.978Z,14.16
2022-11-13T11:58:40.417Z,13.99
2022-11-13T12:04:11.964Z,14.03
2022-11-13T12:09:39.696Z,14.08
2022-11-13T12:15:06.718Z,13.81
2022-11-13T12:20:32.720Z,14.04
2022-11-13T12:25:53.783Z,14.11
2022-11-13T12:31:30.890Z,13.93
2022-11-13T12:36:51.415Z,13.21
2022-11-13T12:42:22.788Z,13.01
2022-11-13T12:47:40.116Z,13.10
2022-11-13T12:53:00.891Z,12.76
2022-11-13T12:58:27.070Z,12.48
2022-11-13T13:04:00.471Z,12.76
2022-11-13T13:09:36.339Z,12.73
2022-11-13T13:15:03.509Z,13.05
2022-11-13T13:20:21.595Z,12.77
2022-11-13T13:25:38.756Z,13.33
2022-11-13T13:30:57.855Z,13.27
2022-11-13T13:36:36.438Z,13.51
2022-11-13T13:41:53.804Z,13.37
2022-11-13T13:47:12.141Z,12.99
2022-11-13T13:52:35.177Z,12.57
2022-11-13T13:58:00.301Z,12.89
2022-11-13T14:03:21.184Z,12.78
2022-11-13T14:08:37.148Z,12.90
2022-11-13T14:13:57.355Z,12.90
2022-11-13T14:19:17.016Z,12.56
2022-11-13T14:24:47.534Z,12.25
2022-11-13T14:30:09.999Z,12.33
2022-11-13T14:35:34.412Z,12.48
2022-11-13T14:40:54.111Z,12.39
2022-11-13T14:46:30.130Z,12.39
2022-11-13T14:51:58.029Z,12.36
2022-11-13T14:57:17.513Z,12.25
2022-11-13T15:02:36.695Z,12.19
2022-11-13T15:07:55.337Z,11.97
2022-11-13T15:13:12.363Z,11.89
2022-11-13T15:18:30.553Z,11.83
2022-11-13T15:23:48.445Z,11.71
2022-11-13T15:29:05.601Z,11.53
2022-11-13T15:34:23.112Z,11.56
2022-11-13T15:39:41.786Z,11.42
2022-11-13T15:45:04.726Z,11.32
2022-11-13T15:50:24.577Z,11.41
2022-11-13T15:55:41.224Z,11.38
2022-11-13T16:01:00.664Z,11.37
2022-11-13T16:06:19.499Z,11.29
2022-11-13T16:11:36.577Z,11.32
2022-11-13T16:16:55.434Z,11.17
2022-11-13T16:22:19.880Z,11.04
2022-11-13T16:33:32.276Z,10.96
2022-11-13T16:38:57.024Z,11.00
2022-11-13T16:44:15.549Z,10.91
2022-11-13T16:55:43.438Z,10.81
2022-11-13T17:01:06.049Z,10.81
2022-11-13T17:06:28.341Z,10.74
2022-11-13T17:11:45.804Z,10.76
2022-11-13T17:17:27.514Z,10.80
2022-11-13T17:22:55.209Z,10.98
2022-11-13T17:28:18.967Z,10.76
2022-11-13T17:33:51.306Z,10.56
2022-11-13T17:39:18.125Z,10.49
2022-11-13T17:50:46.618Z,10.93
2022-11-13T17:56:11.081Z,10.57
2022-11-13T18:01:27.864Z,10.44
2022-11-13T18:06:47.064Z,10.44
2022-11-13T18:12:04.152Z,10.29
2022-11-13T18:17:24.894Z,10.33
2022-11-13T18:22:46.519Z,10.72
2022-11-13T18:28:04.012Z,10.52
2022-11-13T18:33:27.672Z,10.64
2022-11-13T18:38:46.393Z,10.76
2022-11-13T18:44:05.038Z,10.70
2022-11-13T18:49:25.370Z,10.67
2022-11-13T18:54:45.307Z,10.64
2022-11-13T19:00:12.442Z,10.54
2022-11-13T19:05:30.711Z,10.47
2022-11-13T19:10:55.037Z,10.39
2022-11-13T19:16:33.189Z,10.20
2022-11-13T19:21:52.651Z,10.05
2022-11-13T19:27:10.267Z,9.68
2022-11-13T19:32:29.666Z,9.85
2022-11-13T19:37:57.827Z,9.74
2022-11-13T19:43:16.151Z,9.94
2022-11-13T19:48:35.154Z,9.97
2022-11-13T19:53:55.945Z,10.07
2022-11-13T19:59:24.810Z,9.87
2022-11-13T20:04:49.324Z,9.61
2022-11-13T20:10:07.200Z,9.55
2022-11-13T20:15:25.058Z,9.30
2022-11-13T20:20:47.387Z,8.86
2022-11-13T20:26:11.519Z,8.63
2022-11-13T20:31:36.727Z,8.35
2022-11-13T20:36:58.159Z,8.36
2022-11-13T20:42:16.307Z,8.47
2022-11-13T20:47:35.149Z,9.04
2022-11-13T20:52:54.340Z,9.00
2022-11-13T20:58:11.979Z,9.18
2022-11-13T21:03:46.170Z,9.22
2022-11-13T21:09:03.797Z,9.14
2022-11-13T21:14:23.617Z,9.17
2022-11-13T21:19:42.181Z,9.68
2022-11-13T21:25:03.873Z,9.82
2022-11-13T21:30:26.165Z,9.53
2022-11-13T21:35:46.174Z,9.29
2022-11-13T21:41:27.635Z,9.53
2022-11-13T21:46:46.153Z,9.30
2022-11-13T21:52:03.907Z,9.28
2022-11-13T21:57:24.417Z,9.23
2022-11-13T22:02:43.804Z,9.31
2022-11-13T22:13:44.283Z,9.16
2022-11-13T22:19:02.244Z,8.95
2022-11-13T22:24:22.500Z,8.41
2022-11-13T22:29:40.743Z,8.21
2022-11-13T22:35:02.582Z,8.16
2022-11-13T22:40:24.151Z,8.27
2022-11-13T22:45:44.431Z,8.74
2022-11-13T22:51:07.811Z,9.09
2022-11-13T22:56:26.218Z,9.31
2022-11-13T23:01:43.378Z,9.15
2022-11-13T23:07:01.192Z,8.97
2022-11-13T23:12:23.374Z,9.20
2022-11-13T23:17:43.369Z,9.46
2022-11-13T23:23:01.492Z,9.34
2022-11-13T23:28:19.786Z,9.41
2022-11-13T23:33:37.654Z,9.36
2022-11-13T23:38:54.939Z,9.17
2022-11-13T23:44:13.629Z,9.41
2022-11-13T23:49:35.186Z,9.15
2022-11-13T23:54:58.822Z,9.09
